sensor_id;sensor_type;location;lat;lon;timestamp;temperature;humidity
58993;DHT22;44782;0.000;0.000;2023-05-07T00:02:14;19.90;59.70
58993;DHT22;44782;0.000;0.000;2023-05-07T00:04:33;19.90;59.70
58993;DHT22;44782;0.000;0.000;2023-05-07T00:06:52;19.90;59.60
58993;DHT22;44782;0.000;0.000;2023-05-07T00:09:07;19.80;60.40
58993;DHT22;44782;0.000;0.000;2023-05-07T00:11:23;19.80;59.70
58993;DHT22;44782;0.000;0.000;2023-05-07T00:13:39;19.80;59.70
58993;DHT22;44782;0.000;0.000;2023-05-07T00:15:54;19.80;59.70
58993;DHT22;44782;0.000;0.000;2023-05-07T00:18:10;19.80;59.70
58993;DHT22;44782;0.000;0.000;2023-05-07T00:20:26;19.80;59.70
58993;DHT22;44782;0.000;0.000;2023-05-07T00:22:42;19.80;59.70
58993;DHT22;44782;0.000;0.000;2023-05-07T00:24:58;19.80;59.70
58993;DHT22;44782;0.000;0.000;2023-05-07T00:27:14;19.80;59.70
58993;DHT22;44782;0.000;0.000;2023-05-07T00:29:29;19.80;59.70
58993;DHT22;44782;0.000;0.000;2023-05-07T00:31:45;19.70;59.60
58993;DHT22;44782;0.000;0.000;2023-05-07T00:34:01;19.80;59.70
58993;DHT22;44782;0.000;0.000;2023-05-07T00:36:16;19.80;59.70
58993;DHT22;44782;0.000;0.000;2023-05-07T00:38:32;19.80;59.70
58993;DHT22;44782;0.000;0.000;2023-05-07T00:40:48;19.80;59.70
58993;DHT22;44782;0.000;0.000;2023-05-07T00:43:03;19.80;59.70
58993;DHT22;44782;0.000;0.000;2023-05-07T00:45:19;19.70;59.70
58993;DHT22;44782;0.000;0.000;2023-05-07T00:47:35;19.80;59.70
58993;DHT22;44782;0.000;0.000;2023-05-07T00:49:51;19.80;59.70
58993;DHT22;44782;0.000;0.000;2023-05-07T00:52:07;19.80;59.70
58993;DHT22;44782;0.000;0.000;2023-05-07T00:54:24;19.80;59.70
58993;DHT22;44782;0.000;0.000;2023-05-07T00:56:40;19.80;59.70
58993;DHT22;44782;0.000;0.000;2023-05-07T00:58:56;19.80;59.70
58993;DHT22;44782;0.000;0.000;2023-05-07T01:01:11;19.80;59.70
58993;DHT22;44782;0.000;0.000;2023-05-07T01:03:27;19.80;59.70
58993;DHT22;44782;0.000;0.000;2023-05-07T01:05:43;19.80;59.70
58993;DHT22;44782;0.000;0.000;2023-05-07T01:08:01;19.70;59.70
58993;DHT22;44782;0.000;0.000;2023-05-07T01:10:18;19.70;59.70
58993;DHT22;44782;0.000;0.000;2023-05-07T01:12:37;19.70;59.70
58993;DHT22;44782;0.000;0.000;2023-05-07T01:14:53;19.70;59.60
58993;DHT22;44782;0.000;0.000;2023-05-07T01:17:09;19.70;59.70
58993;DHT22;44782;0.000;0.000;2023-05-07T01:19:25;19.70;59.70
58993;DHT22;44782;0.000;0.000;2023-05-07T01:21:45;19.70;59.70
58993;DHT22;44782;0.000;0.000;2023-05-07T01:24:01;19.70;59.70
58993;DHT22;44782;0.000;0.000;2023-05-07T01:26:17;19.70;59.70
58993;DHT22;44782;0.000;0.000;2023-05-07T01:28:34;19.70;59.70
58993;DHT22;44782;0.000;0.000;2023-05-07T01:30:53;19.70;59.70
58993;DHT22;44782;0.000;0.000;2023-05-07T01:33:11;19.70;59.70
58993;DHT22;44782;0.000;0.000;2023-05-07T01:35:32;19.70;59.80
58993;DHT22;44782;0.000;0.000;2023-05-07T01:37:49;19.70;59.70
58993;DHT22;44782;0.000;0.000;2023-05-07T01:40:06;19.70;59.70
58993;DHT22;44782;0.000;0.000;2023-05-07T01:42:22;19.70;59.70
58993;DHT22;44782;0.000;0.000;2023-05-07T01:44:38;19.70;59.70
58993;DHT22;44782;0.000;0.000;2023-05-07T01:46:54;19.70;59.70
58993;DHT22;44782;0.000;0.000;2023-05-07T01:49:10;19.60;59.70
58993;DHT22;44782;0.000;0.000;2023-05-07T01:51:26;19.60;59.70
58993;DHT22;44782;0.000;0.000;2023-05-07T01:53:42;19.70;59.70
58993;DHT22;44782;0.000;0.000;2023-05-07T01:55:59;19.70;59.70
58993;DHT22;44782;0.000;0.000;2023-05-07T01:58:15;19.70;59.70
58993;DHT22;44782;0.000;0.000;2023-05-07T02:00:31;19.60;59.70
58993;DHT22;44782;0.000;0.000;2023-05-07T02:02:47;19.60;59.70
58993;DHT22;44782;0.000;0.000;2023-05-07T02:05:03;19.60;59.70
58993;DHT22;44782;0.000;0.000;2023-05-07T02:09:44;19.60;59.70
58993;DHT22;44782;0.000;0.000;2023-05-07T02:11:59;19.60;59.70
58993;DHT22;44782;0.000;0.000;2023-05-07T02:14:15;19.60;59.80
58993;DHT22;44782;0.000;0.000;2023-05-07T02:16:31;19.60;59.70
58993;DHT22;44782;0.000;0.000;2023-05-07T02:18:47;19.60;59.70
58993;DHT22;44782;0.000;0.000;2023-05-07T02:21:02;19.60;59.80
58993;DHT22;44782;0.000;0.000;2023-05-07T02:23:18;19.60;59.80
58993;DHT22;44782;0.000;0.000;2023-05-07T02:25:34;19.60;59.80
58993;DHT22;44782;0.000;0.000;2023-05-07T02:27:49;19.60;59.80
58993;DHT22;44782;0.000;0.000;2023-05-07T02:30:05;19.60;59.80
58993;DHT22;44782;0.000;0.000;2023-05-07T02:32:21;19.60;59.80
58993;DHT22;44782;0.000;0.000;2023-05-07T02:34:38;19.60;59.80
58993;DHT22;44782;0.000;0.000;2023-05-07T02:36:54;19.60;59.80
58993;DHT22;44782;0.000;0.000;2023-05-07T02:39:09;19.60;59.80
58993;DHT22;44782;0.000;0.000;2023-05-07T02:41:25;19.60;59.80
58993;DHT22;44782;0.000;0.000;2023-05-07T02:43:40;19.60;59.80
58993;DHT22;44782;0.000;0.000;2023-05-07T02:46:06;19.60;59.90
58993;DHT22;44782;0.000;0.000;2023-05-07T02:48:22;19.60;59.70
58993;DHT22;44782;0.000;0.000;2023-05-07T02:50:38;19.60;59.80
58993;DHT22;44782;0.000;0.000;2023-05-07T02:52:54;19.60;59.80
58993;DHT22;44782;0.000;0.000;2023-05-07T02:55:10;19.60;59.80
58993;DHT22;44782;0.000;0.000;2023-05-07T02:57:26;19.60;59.80
58993;DHT22;44782;0.000;0.000;2023-05-07T02:59:42;19.60;59.90
58993;DHT22;44782;0.000;0.000;2023-05-07T03:01:58;19.60;59.80
58993;DHT22;44782;0.000;0.000;2023-05-07T03:04:13;19.60;59.80
58993;DHT22;44782;0.000;0.000;2023-05-07T03:06:29;19.60;59.80
58993;DHT22;44782;0.000;0.000;2023-05-07T03:08:45;19.50;59.80
58993;DHT22;44782;0.000;0.000;2023-05-07T03:11:00;19.60;59.90
58993;DHT22;44782;0.000;0.000;2023-05-07T03:13:16;19.60;59.90
58993;DHT22;44782;0.000;0.000;2023-05-07T03:15:32;19.60;59.90
58993;DHT22;44782;0.000;0.000;2023-05-07T03:17:48;19.50;59.80
58993;DHT22;44782;0.000;0.000;2023-05-07T03:20:05;19.50;59.80
58993;DHT22;44782;0.000;0.000;2023-05-07T03:22:21;19.50;59.80
58993;DHT22;44782;0.000;0.000;2023-05-07T03:24:36;19.50;59.80
58993;DHT22;44782;0.000;0.000;2023-05-07T03:26:52;19.50;59.80
58993;DHT22;44782;0.000;0.000;2023-05-07T03:29:08;19.50;59.80
58993;DHT22;44782;0.000;0.000;2023-05-07T03:31:24;19.50;59.80
58993;DHT22;44782;0.000;0.000;2023-05-07T03:33:54;19.50;59.80
58993;DHT22;44782;0.000;0.000;2023-05-07T03:36:10;19.50;59.80
58993;DHT22;44782;0.000;0.000;2023-05-07T03:38:26;19.50;59.90
58993;DHT22;44782;0.000;0.000;2023-05-07T03:40:41;19.50;59.80
58993;DHT22;44782;0.000;0.000;2023-05-07T03:42:57;19.50;59.80
58993;DHT22;44782;0.000;0.000;2023-05-07T03:45:13;19.50;59.90
58993;DHT22;44782;0.000;0.000;2023-05-07T03:47:28;19.50;59.90
58993;DHT22;44782;0.000;0.000;2023-05-07T03:49:44;19.50;59.90
58993;DHT22;44782;0.000;0.000;2023-05-07T03:52:00;19.50;59.90
58993;DHT22;44782;0.000;0.000;2023-05-07T03:54:15;19.50;59.90
58993;DHT22;44782;0.000;0.000;2023-05-07T03:56:31;19.50;59.90
58993;DHT22;44782;0.000;0.000;2023-05-07T03:58:47;19.50;59.90
58993;DHT22;44782;0.000;0.000;2023-05-07T04:01:03;19.50;59.90
58993;DHT22;44782;0.000;0.000;2023-05-07T04:03:19;19.50;59.90
58993;DHT22;44782;0.000;0.000;2023-05-07T04:05:35;19.50;59.90
58993;DHT22;44782;0.000;0.000;2023-05-07T04:07:50;19.50;59.80
58993;DHT22;44782;0.000;0.000;2023-05-07T04:10:06;19.50;59.90
58993;DHT22;44782;0.000;0.000;2023-05-07T04:12:22;19.50;59.90
58993;DHT22;44782;0.000;0.000;2023-05-07T04:14:38;19.50;59.90
58993;DHT22;44782;0.000;0.000;2023-05-07T04:16:53;19.50;59.90
58993;DHT22;44782;0.000;0.000;2023-05-07T04:19:09;19.50;59.90
58993;DHT22;44782;0.000;0.000;2023-05-07T04:21:25;19.40;59.80
58993;DHT22;44782;0.000;0.000;2023-05-07T04:23:42;19.50;59.90
58993;DHT22;44782;0.000;0.000;2023-05-07T04:25:57;19.40;59.80
58993;DHT22;44782;0.000;0.000;2023-05-07T04:28:13;19.50;59.90
58993;DHT22;44782;0.000;0.000;2023-05-07T04:30:29;19.40;59.80
58993;DHT22;44782;0.000;0.000;2023-05-07T04:32:45;19.40;59.80
58993;DHT22;44782;0.000;0.000;2023-05-07T04:35:01;19.40;59.80
58993;DHT22;44782;0.000;0.000;2023-05-07T04:37:16;19.40;59.80
58993;DHT22;44782;0.000;0.000;2023-05-07T04:39:32;19.40;59.80
58993;DHT22;44782;0.000;0.000;2023-05-07T04:41:50;19.40;59.80
58993;DHT22;44782;0.000;0.000;2023-05-07T04:44:06;19.40;59.80
58993;DHT22;44782;0.000;0.000;2023-05-07T04:46:22;19.40;59.80
58993;DHT22;44782;0.000;0.000;2023-05-07T04:48:39;19.40;59.80
58993;DHT22;44782;0.000;0.000;2023-05-07T04:50:55;19.40;59.80
58993;DHT22;44782;0.000;0.000;2023-05-07T04:53:11;19.40;59.90
58993;DHT22;44782;0.000;0.000;2023-05-07T04:55:27;19.40;59.80
58993;DHT22;44782;0.000;0.000;2023-05-07T04:57:43;19.40;59.80
58993;DHT22;44782;0.000;0.000;2023-05-07T04:59:59;19.40;59.80
58993;DHT22;44782;0.000;0.000;2023-05-07T05:02:15;19.40;59.90
58993;DHT22;44782;0.000;0.000;2023-05-07T05:04:31;19.40;59.90
58993;DHT22;44782;0.000;0.000;2023-05-07T05:06:47;19.40;59.80
58993;DHT22;44782;0.000;0.000;2023-05-07T05:09:03;19.40;60.00
58993;DHT22;44782;0.000;0.000;2023-05-07T05:11:20;19.40;59.90
58993;DHT22;44782;0.000;0.000;2023-05-07T05:13:36;19.40;59.90
58993;DHT22;44782;0.000;0.000;2023-05-07T05:15:52;19.40;59.80
58993;DHT22;44782;0.000;0.000;2023-05-07T05:18:08;19.40;59.90
58993;DHT22;44782;0.000;0.000;2023-05-07T05:20:24;19.40;59.90
58993;DHT22;44782;0.000;0.000;2023-05-07T05:22:41;19.40;59.90
58993;DHT22;44782;0.000;0.000;2023-05-07T05:24:57;19.40;60.00
58993;DHT22;44782;0.000;0.000;2023-05-07T05:27:13;19.40;59.90
58993;DHT22;44782;0.000;0.000;2023-05-07T05:29:28;19.40;60.00
58993;DHT22;44782;0.000;0.000;2023-05-07T05:31:45;19.40;60.00
58993;DHT22;44782;0.000;0.000;2023-05-07T05:34:01;19.30;59.90
58993;DHT22;44782;0.000;0.000;2023-05-07T05:36:17;19.40;60.00
58993;DHT22;44782;0.000;0.000;2023-05-07T05:38:33;19.40;60.00
58993;DHT22;44782;0.000;0.000;2023-05-07T05:40:49;19.40;60.00
58993;DHT22;44782;0.000;0.000;2023-05-07T05:43:06;19.40;60.00
58993;DHT22;44782;0.000;0.000;2023-05-07T05:45:21;19.30;59.90
58993;DHT22;44782;0.000;0.000;2023-05-07T05:47:37;19.30;59.90
58993;DHT22;44782;0.000;0.000;2023-05-07T05:49:54;19.30;60.00
58993;DHT22;44782;0.000;0.000;2023-05-07T05:52:12;19.30;60.00
58993;DHT22;44782;0.000;0.000;2023-05-07T05:54:29;19.30;60.00
58993;DHT22;44782;0.000;0.000;2023-05-07T05:56:44;19.30;60.00
58993;DHT22;44782;0.000;0.000;2023-05-07T05:59:00;19.30;60.00
58993;DHT22;44782;0.000;0.000;2023-05-07T06:01:17;19.30;60.00
58993;DHT22;44782;0.000;0.000;2023-05-07T06:03:33;19.30;60.00
58993;DHT22;44782;0.000;0.000;2023-05-07T06:05:49;19.30;60.00
58993;DHT22;44782;0.000;0.000;2023-05-07T06:08:04;19.30;60.00
58993;DHT22;44782;0.000;0.000;2023-05-07T06:10:20;19.30;60.00
58993;DHT22;44782;0.000;0.000;2023-05-07T06:12:36;19.30;60.00
58993;DHT22;44782;0.000;0.000;2023-05-07T06:14:52;19.30;60.00
58993;DHT22;44782;0.000;0.000;2023-05-07T06:17:07;19.30;60.00
58993;DHT22;44782;0.000;0.000;2023-05-07T06:19:23;19.30;60.00
58993;DHT22;44782;0.000;0.000;2023-05-07T06:21:39;19.30;60.00
58993;DHT22;44782;0.000;0.000;2023-05-07T06:23:55;19.30;60.00
58993;DHT22;44782;0.000;0.000;2023-05-07T06:26:11;19.30;60.10
58993;DHT22;44782;0.000;0.000;2023-05-07T06:28:27;19.30;60.10
58993;DHT22;44782;0.000;0.000;2023-05-07T06:30:43;19.30;60.10
58993;DHT22;44782;0.000;0.000;2023-05-07T06:32:58;19.30;60.10
58993;DHT22;44782;0.000;0.000;2023-05-07T06:35:14;19.30;60.10
58993;DHT22;44782;0.000;0.000;2023-05-07T06:37:30;19.30;60.10
58993;DHT22;44782;0.000;0.000;2023-05-07T06:39:45;19.30;60.10
58993;DHT22;44782;0.000;0.000;2023-05-07T06:42:01;19.30;60.10
58993;DHT22;44782;0.000;0.000;2023-05-07T06:44:17;19.30;60.10
58993;DHT22;44782;0.000;0.000;2023-05-07T06:46:33;19.30;60.20
58993;DHT22;44782;0.000;0.000;2023-05-07T06:48:49;19.30;60.30
58993;DHT22;44782;0.000;0.000;2023-05-07T06:51:04;19.30;60.20
58993;DHT22;44782;0.000;0.000;2023-05-07T06:53:20;19.30;60.20
58993;DHT22;44782;0.000;0.000;2023-05-07T06:55:36;19.30;60.20
58993;DHT22;44782;0.000;0.000;2023-05-07T06:57:53;19.30;60.30
58993;DHT22;44782;0.000;0.000;2023-05-07T07:00:09;19.20;60.20
58993;DHT22;44782;0.000;0.000;2023-05-07T07:02:25;19.20;60.20
58993;DHT22;44782;0.000;0.000;2023-05-07T07:04:41;19.30;60.30
58993;DHT22;44782;0.000;0.000;2023-05-07T07:06:57;19.20;60.20
58993;DHT22;44782;0.000;0.000;2023-05-07T07:09:12;19.20;60.30
58993;DHT22;44782;0.000;0.000;2023-05-07T07:11:28;19.20;60.30
58993;DHT22;44782;0.000;0.000;2023-05-07T07:13:44;19.20;60.30
58993;DHT22;44782;0.000;0.000;2023-05-07T07:16:00;19.20;60.30
58993;DHT22;44782;0.000;0.000;2023-05-07T07:18:16;19.30;60.40
58993;DHT22;44782;0.000;0.000;2023-05-07T07:20:31;19.20;60.40
58993;DHT22;44782;0.000;0.000;2023-05-07T07:22:47;19.20;60.40
58993;DHT22;44782;0.000;0.000;2023-05-07T07:25:03;19.20;60.40
58993;DHT22;44782;0.000;0.000;2023-05-07T07:27:19;19.20;60.30
58993;DHT22;44782;0.000;0.000;2023-05-07T07:29:35;19.20;60.40
58993;DHT22;44782;0.000;0.000;2023-05-07T07:31:50;19.20;60.40
58993;DHT22;44782;0.000;0.000;2023-05-07T07:34:06;19.20;60.40
58993;DHT22;44782;0.000;0.000;2023-05-07T07:36:22;19.20;60.40
58993;DHT22;44782;0.000;0.000;2023-05-07T07:38:37;19.20;60.50
58993;DHT22;44782;0.000;0.000;2023-05-07T07:40:53;19.20;60.40
58993;DHT22;44782;0.000;0.000;2023-05-07T07:43:09;19.20;60.50
58993;DHT22;44782;0.000;0.000;2023-05-07T07:45:25;19.20;60.50
58993;DHT22;44782;0.000;0.000;2023-05-07T07:47:40;19.20;60.50
58993;DHT22;44782;0.000;0.000;2023-05-07T07:49:56;19.20;60.50
58993;DHT22;44782;0.000;0.000;2023-05-07T07:52:12;19.20;60.50
58993;DHT22;44782;0.000;0.000;2023-05-07T07:54:28;19.20;60.50
58993;DHT22;44782;0.000;0.000;2023-05-07T07:56:44;19.20;60.50
58993;DHT22;44782;0.000;0.000;2023-05-07T07:59:00;19.20;60.50
58993;DHT22;44782;0.000;0.000;2023-05-07T08:01:16;19.20;60.50
58993;DHT22;44782;0.000;0.000;2023-05-07T08:03:32;19.20;60.50
58993;DHT22;44782;0.000;0.000;2023-05-07T08:05:48;19.20;60.50
58993;DHT22;44782;0.000;0.000;2023-05-07T08:08:06;19.20;60.50
58993;DHT22;44782;0.000;0.000;2023-05-07T08:10:22;19.20;60.50
58993;DHT22;44782;0.000;0.000;2023-05-07T08:12:37;19.20;61.30
58993;DHT22;44782;0.000;0.000;2023-05-07T08:14:53;19.20;60.50
58993;DHT22;44782;0.000;0.000;2023-05-07T08:17:09;19.20;60.50
58993;DHT22;44782;0.000;0.000;2023-05-07T08:19:25;19.20;60.50
58993;DHT22;44782;0.000;0.000;2023-05-07T08:21:41;19.20;60.50
58993;DHT22;44782;0.000;0.000;2023-05-07T08:23:57;19.20;60.50
58993;DHT22;44782;0.000;0.000;2023-05-07T08:26:12;19.20;60.50
58993;DHT22;44782;0.000;0.000;2023-05-07T08:28:28;19.20;60.50
58993;DHT22;44782;0.000;0.000;2023-05-07T08:30:44;19.20;60.50
58993;DHT22;44782;0.000;0.000;2023-05-07T08:33:00;19.20;60.50
58993;DHT22;44782;0.000;0.000;2023-05-07T08:35:16;19.20;60.50
58993;DHT22;44782;0.000;0.000;2023-05-07T08:37:31;19.20;60.50
58993;DHT22;44782;0.000;0.000;2023-05-07T08:39:47;19.30;60.60
58993;DHT22;44782;0.000;0.000;2023-05-07T08:42:04;19.30;60.60
58993;DHT22;44782;0.000;0.000;2023-05-07T08:44:22;19.30;60.60
58993;DHT22;44782;0.000;0.000;2023-05-07T08:46:39;19.30;60.90
58993;DHT22;44782;0.000;0.000;2023-05-07T08:48:55;19.30;60.60
58993;DHT22;44782;0.000;0.000;2023-05-07T08:51:20;19.20;60.50
58993;DHT22;44782;0.000;0.000;2023-05-07T08:53:36;19.30;60.60
58993;DHT22;44782;0.000;0.000;2023-05-07T08:55:54;19.30;60.50
58993;DHT22;44782;0.000;0.000;2023-05-07T08:58:10;19.30;60.50
58993;DHT22;44782;0.000;0.000;2023-05-07T09:00:26;19.30;60.50
58993;DHT22;44782;0.000;0.000;2023-05-07T09:02:41;19.30;60.50
58993;DHT22;44782;0.000;0.000;2023-05-07T09:04:57;19.30;60.50
58993;DHT22;44782;0.000;0.000;2023-05-07T09:07:13;19.30;60.50
58993;DHT22;44782;0.000;0.000;2023-05-07T09:09:29;19.30;60.50
58993;DHT22;44782;0.000;0.000;2023-05-07T09:11:44;19.30;60.50
58993;DHT22;44782;0.000;0.000;2023-05-07T09:14:00;19.30;60.50
58993;DHT22;44782;0.000;0.000;2023-05-07T09:16:21;19.30;60.50
58993;DHT22;44782;0.000;0.000;2023-05-07T09:18:43;19.30;60.50
58993;DHT22;44782;0.000;0.000;2023-05-07T09:21:00;19.30;60.50
58993;DHT22;44782;0.000;0.000;2023-05-07T09:23:16;19.30;60.50
58993;DHT22;44782;0.000;0.000;2023-05-07T09:25:32;19.30;60.50
58993;DHT22;44782;0.000;0.000;2023-05-07T09:27:48;19.30;60.50
58993;DHT22;44782;0.000;0.000;2023-05-07T09:30:05;19.30;60.60
58993;DHT22;44782;0.000;0.000;2023-05-07T09:32:22;19.30;60.80
58993;DHT22;44782;0.000;0.000;2023-05-07T09:34:37;19.30;61.80
58993;DHT22;44782;0.000;0.000;2023-05-07T09:36:53;19.40;61.00
58993;DHT22;44782;0.000;0.000;2023-05-07T09:39:09;19.30;61.20
58993;DHT22;44782;0.000;0.000;2023-05-07T09:41:26;19.40;61.40
58993;DHT22;44782;0.000;0.000;2023-05-07T09:43:42;19.40;61.50
58993;DHT22;44782;0.000;0.000;2023-05-07T09:45:58;19.40;61.70
58993;DHT22;44782;0.000;0.000;2023-05-07T09:48:16;19.40;61.80
58993;DHT22;44782;0.000;0.000;2023-05-07T09:50:36;19.40;61.80
58993;DHT22;44782;0.000;0.000;2023-05-07T09:52:57;19.40;61.80
58993;DHT22;44782;0.000;0.000;2023-05-07T09:55:13;19.40;61.90
58993;DHT22;44782;0.000;0.000;2023-05-07T09:57:29;19.40;62.00
58993;DHT22;44782;0.000;0.000;2023-05-07T09:59:46;19.40;62.30
58993;DHT22;44782;0.000;0.000;2023-05-07T10:02:03;19.40;62.30
58993;DHT22;44782;0.000;0.000;2023-05-07T10:04:20;19.40;62.30
58993;DHT22;44782;0.000;0.000;2023-05-07T10:06:37;19.40;62.30
58993;DHT22;44782;0.000;0.000;2023-05-07T10:08:55;19.40;62.30
58993;DHT22;44782;0.000;0.000;2023-05-07T10:11:11;19.40;62.30
58993;DHT22;44782;0.000;0.000;2023-05-07T10:13:27;19.40;62.40
58993;DHT22;44782;0.000;0.000;2023-05-07T10:15:45;19.40;62.40
58993;DHT22;44782;0.000;0.000;2023-05-07T10:18:01;19.50;62.50
58993;DHT22;44782;0.000;0.000;2023-05-07T10:20:18;19.50;62.60
58993;DHT22;44782;0.000;0.000;2023-05-07T10:22:44;19.50;62.50
58993;DHT22;44782;0.000;0.000;2023-05-07T10:25:02;19.50;62.70
58993;DHT22;44782;0.000;0.000;2023-05-07T10:27:19;19.50;62.70
58993;DHT22;44782;0.000;0.000;2023-05-07T10:32:39;19.50;62.80
58993;DHT22;44782;0.000;0.000;2023-05-07T10:35:00;19.50;62.80
58993;DHT22;44782;0.000;0.000;2023-05-07T10:37:17;19.50;62.70
58993;DHT22;44782;0.000;0.000;2023-05-07T10:39:33;19.50;62.70
58993;DHT22;44782;0.000;0.000;2023-05-07T10:41:50;19.50;62.70
58993;DHT22;44782;0.000;0.000;2023-05-07T10:44:05;19.50;62.70
58993;DHT22;44782;0.000;0.000;2023-05-07T10:46:22;19.50;62.80
58993;DHT22;44782;0.000;0.000;2023-05-07T10:51:20;19.60;62.90
58993;DHT22;44782;0.000;0.000;2023-05-07T10:53:36;19.50;62.80
58993;DHT22;44782;0.000;0.000;2023-05-07T10:58:34;19.60;62.80
58993;DHT22;44782;0.000;0.000;2023-05-07T11:01:01;19.60;62.90
58993;DHT22;44782;0.000;0.000;2023-05-07T11:03:17;19.60;62.70
58993;DHT22;44782;0.000;0.000;2023-05-07T11:05:33;19.60;62.90
58993;DHT22;44782;0.000;0.000;2023-05-07T11:08:00;19.60;62.90
58993;DHT22;44782;0.000;0.000;2023-05-07T11:10:16;19.60;63.40
58993;DHT22;44782;0.000;0.000;2023-05-07T11:14:54;19.60;63.70
58993;DHT22;44782;0.000;0.000;2023-05-07T11:17:11;19.60;63.70
58993;DHT22;44782;0.000;0.000;2023-05-07T11:19:52;19.60;63.60
58993;DHT22;44782;0.000;0.000;2023-05-07T11:24:46;19.60;65.00
58993;DHT22;44782;0.000;0.000;2023-05-07T11:27:02;19.60;64.50
58993;DHT22;44782;0.000;0.000;2023-05-07T11:29:20;19.60;64.70
58993;DHT22;44782;0.000;0.000;2023-05-07T11:31:37;19.60;64.80
58993;DHT22;44782;0.000;0.000;2023-05-07T11:33:53;19.70;64.60
58993;DHT22;44782;0.000;0.000;2023-05-07T11:36:09;19.70;64.90
58993;DHT22;44782;0.000;0.000;2023-05-07T11:38:26;19.70;65.10
58993;DHT22;44782;0.000;0.000;2023-05-07T11:40:58;19.80;65.30
58993;DHT22;44782;0.000;0.000;2023-05-07T11:43:15;19.80;66.50
58993;DHT22;44782;0.000;0.000;2023-05-07T11:45:31;19.80;65.90
58993;DHT22;44782;0.000;0.000;2023-05-07T11:47:47;19.80;66.10
58993;DHT22;44782;0.000;0.000;2023-05-07T11:50:07;19.90;66.60
58993;DHT22;44782;0.000;0.000;2023-05-07T11:52:24;19.90;67.30
58993;DHT22;44782;0.000;0.000;2023-05-07T11:54:40;20.00;67.30
58993;DHT22;44782;0.000;0.000;2023-05-07T11:56:56;20.00;67.20
58993;DHT22;44782;0.000;0.000;2023-05-07T11:59:11;20.00;67.30
58993;DHT22;44782;0.000;0.000;2023-05-07T12:01:27;20.00;67.40
58993;DHT22;44782;0.000;0.000;2023-05-07T12:03:44;20.00;67.70
58993;DHT22;44782;0.000;0.000;2023-05-07T12:06:05;20.00;68.00
58993;DHT22;44782;0.000;0.000;2023-05-07T12:08:21;20.10;67.80
58993;DHT22;44782;0.000;0.000;2023-05-07T12:10:41;20.10;67.40
58993;DHT22;44782;0.000;0.000;2023-05-07T12:12:56;20.10;68.00
58993;DHT22;44782;0.000;0.000;2023-05-07T12:15:16;20.10;67.70
58993;DHT22;44782;0.000;0.000;2023-05-07T12:17:32;20.10;67.50
58993;DHT22;44782;0.000;0.000;2023-05-07T12:19:48;20.10;67.00
58993;DHT22;44782;0.000;0.000;2023-05-07T12:22:04;20.10;67.30
58993;DHT22;44782;0.000;0.000;2023-05-07T12:24:20;20.20;67.80
58993;DHT22;44782;0.000;0.000;2023-05-07T12:26:39;20.20;67.80
58993;DHT22;44782;0.000;0.000;2023-05-07T12:28:57;20.20;68.00
58993;DHT22;44782;0.000;0.000;2023-05-07T12:31:14;20.20;67.50
58993;DHT22;44782;0.000;0.000;2023-05-07T12:33:31;20.20;66.90
58993;DHT22;44782;0.000;0.000;2023-05-07T12:35:47;20.20;66.50
58993;DHT22;44782;0.000;0.000;2023-05-07T12:38:08;20.20;66.20
58993;DHT22;44782;0.000;0.000;2023-05-07T12:40:24;20.20;66.40
58993;DHT22;44782;0.000;0.000;2023-05-07T12:42:40;20.20;66.10
58993;DHT22;44782;0.000;0.000;2023-05-07T12:44:56;20.20;65.80
58993;DHT22;44782;0.000;0.000;2023-05-07T12:47:11;20.20;65.60
58993;DHT22;44782;0.000;0.000;2023-05-07T12:49:28;20.20;65.60
58993;DHT22;44782;0.000;0.000;2023-05-07T12:51:44;20.20;65.50
58993;DHT22;44782;0.000;0.000;2023-05-07T12:54:02;20.20;65.60
58993;DHT22;44782;0.000;0.000;2023-05-07T12:56:18;20.20;65.30
58993;DHT22;44782;0.000;0.000;2023-05-07T12:58:35;20.30;65.30
58993;DHT22;44782;0.000;0.000;2023-05-07T13:00:51;20.30;65.10
58993;DHT22;44782;0.000;0.000;2023-05-07T13:03:07;20.30;65.00
58993;DHT22;44782;0.000;0.000;2023-05-07T13:05:22;20.30;65.00
58993;DHT22;44782;0.000;0.000;2023-05-07T13:07:39;20.30;65.40
58993;DHT22;44782;0.000;0.000;2023-05-07T13:09:56;20.30;65.40
58993;DHT22;44782;0.000;0.000;2023-05-07T13:12:11;20.30;65.60
58993;DHT22;44782;0.000;0.000;2023-05-07T13:14:27;20.30;65.60
58993;DHT22;44782;0.000;0.000;2023-05-07T13:16:46;20.30;65.90
58993;DHT22;44782;0.000;0.000;2023-05-07T13:19:13;20.40;66.10
58993;DHT22;44782;0.000;0.000;2023-05-07T13:21:37;20.40;66.20
58993;DHT22;44782;0.000;0.000;2023-05-07T13:23:58;20.40;66.30
58993;DHT22;44782;0.000;0.000;2023-05-07T13:26:16;20.40;66.20
58993;DHT22;44782;0.000;0.000;2023-05-07T13:28:36;20.40;66.20
58993;DHT22;44782;0.000;0.000;2023-05-07T13:31:03;20.40;66.10
58993;DHT22;44782;0.000;0.000;2023-05-07T13:33:19;20.40;66.00
58993;DHT22;44782;0.000;0.000;2023-05-07T13:35:35;20.40;66.00
58993;DHT22;44782;0.000;0.000;2023-05-07T13:37:51;20.40;65.90
58993;DHT22;44782;0.000;0.000;2023-05-07T13:40:09;20.40;65.90
58993;DHT22;44782;0.000;0.000;2023-05-07T13:42:25;20.40;65.90
58993;DHT22;44782;0.000;0.000;2023-05-07T13:44:40;20.50;65.80
58993;DHT22;44782;0.000;0.000;2023-05-07T13:46:56;20.50;65.90
58993;DHT22;44782;0.000;0.000;2023-05-07T13:49:12;20.50;65.70
58993;DHT22;44782;0.000;0.000;2023-05-07T13:51:28;20.60;65.80
58993;DHT22;44782;0.000;0.000;2023-05-07T13:53:44;20.50;65.60
58993;DHT22;44782;0.000;0.000;2023-05-07T13:55:59;20.60;65.70
58993;DHT22;44782;0.000;0.000;2023-05-07T13:58:15;20.60;65.60
58993;DHT22;44782;0.000;0.000;2023-05-07T14:00:31;20.60;65.60
58993;DHT22;44782;0.000;0.000;2023-05-07T14:02:46;20.50;65.50
58993;DHT22;44782;0.000;0.000;2023-05-07T14:05:02;20.60;65.50
58993;DHT22;44782;0.000;0.000;2023-05-07T14:07:18;20.50;65.30
58993;DHT22;44782;0.000;0.000;2023-05-07T14:09:34;20.50;65.30
58993;DHT22;44782;0.000;0.000;2023-05-07T14:11:50;20.50;65.20
58993;DHT22;44782;0.000;0.000;2023-05-07T14:14:06;20.50;65.10
58993;DHT22;44782;0.000;0.000;2023-05-07T14:16:22;20.50;65.10
58993;DHT22;44782;0.000;0.000;2023-05-07T14:18:38;20.50;65.10
58993;DHT22;44782;0.000;0.000;2023-05-07T14:20:53;20.50;65.20
58993;DHT22;44782;0.000;0.000;2023-05-07T14:23:09;20.50;65.10
58993;DHT22;44782;0.000;0.000;2023-05-07T14:25:25;20.70;64.70
58993;DHT22;44782;0.000;0.000;2023-05-07T14:27:41;20.60;64.90
58993;DHT22;44782;0.000;0.000;2023-05-07T14:29:57;20.60;65.00
58993;DHT22;44782;0.000;0.000;2023-05-07T14:32:12;20.60;65.10
58993;DHT22;44782;0.000;0.000;2023-05-07T14:34:29;20.60;65.10
58993;DHT22;44782;0.000;0.000;2023-05-07T14:38:32;20.50;64.60
58993;DHT22;44782;0.000;0.000;2023-05-07T14:40:48;20.60;65.10
58993;DHT22;44782;0.000;0.000;2023-05-07T14:43:04;20.60;65.10
58993;DHT22;44782;0.000;0.000;2023-05-07T14:45:21;20.50;65.00
58993;DHT22;44782;0.000;0.000;2023-05-07T14:47:36;20.50;65.00
58993;DHT22;44782;0.000;0.000;2023-05-07T14:49:52;20.50;65.00
58993;DHT22;44782;0.000;0.000;2023-05-07T14:52:08;20.50;65.00
58993;DHT22;44782;0.000;0.000;2023-05-07T14:54:25;20.50;65.00